logo
Search for airport 
image banner adimage banner adimage banner ad
image banner ad

FASH - Stellenbosch

Located in Stellenbosch, South Africa

ICAO - FASH, IATA -

Data provided by Airmate  

General information

Coordinates: S33°58'50" E18°49'22"
Elevation is 321 feet MSL.
 
View others Airports in Western Cape

Operational data

Special qualification required
Current time UTC:
Current local time:
Weather at : - ( 0 km )
METAR: PASA 180946Z AUTO 27011KT 8SM -SN OVC028 M13/M14 A3007 RMK AO2 P0000 FZRANO
View NOTAMs / SUP AIP / TFR affecting this airport [VIEW]
Communications frequencies: [VIEW]

Runways:

RWY identifierQFULength (ft)Width (ft)SurfaceLDA (ft)
01249352ASP
19249352ASP

Airport contact information

Address: Stellenbosch South Africa

Other aviation service providers

Flight schools

Stellenbosch Flight Academy

Stellenbosch Flight Academy

Aviation club (not for profit)

Stellenbosch Flying Club

Stellenbosch Flying Club
Rated:
View ratings:
[VIEW]

Satellite view of FASH